createdAt,value
2023-10-13T00:00:49.726Z,97757.56
2023-10-13T00:03:16.866Z,97755.22
2023-10-13T00:05:44.205Z,97750.41
2023-10-13T00:08:11.230Z,97746.25
2023-10-13T00:10:38.113Z,97736.03
2023-10-13T00:13:22.929Z,97748.94
2023-10-13T00:15:59.180Z,97746.81
2023-10-13T00:18:42.889Z,97745.13
2023-10-13T00:21:16.926Z,97745.31
2023-10-13T00:23:56.016Z,97755.50
2023-10-13T00:26:31.183Z,97755.00
2023-10-13T00:29:08.912Z,97747.91
2023-10-13T00:31:39.702Z,97754.53
2023-10-13T00:34:41.522Z,97755.66
2023-10-13T00:37:20.357Z,97756.28
2023-10-13T00:39:47.166Z,97752.16
2023-10-13T00:42:31.967Z,97752.09
2023-10-13T00:44:59.252Z,97747.22
2023-10-13T00:47:37.799Z,97744.09
2023-10-13T00:50:12.107Z,97742.06
2023-10-13T00:52:42.903Z,97748.47
2023-10-13T00:55:10.925Z,97743.75
2023-10-13T00:57:38.523Z,97738.41
2023-10-13T01:00:13.724Z,97732.09
2023-10-13T01:02:40.758Z,97717.69
2023-10-13T01:05:12.855Z,97735.38
2023-10-13T01:07:39.953Z,97732.38
2023-10-13T01:10:14.710Z,97739.56
2023-10-13T01:12:43.774Z,97730.59
2023-10-13T01:15:12.616Z,97737.81
2023-10-13T01:17:39.234Z,97741.78
2023-10-13T01:20:07.335Z,97746.19
2023-10-13T01:22:34.111Z,97741.44
2023-10-13T01:25:11.942Z,97744.75
2023-10-13T01:27:42.151Z,97746.66
2023-10-13T01:30:23.913Z,97740.47
2023-10-13T01:32:52.265Z,97740.38
2023-10-13T01:35:36.678Z,97761.59
2023-10-13T01:38:03.676Z,97761.91
2023-10-13T01:40:34.900Z,97760.88
2023-10-13T01:43:02.681Z,97756.16
2023-10-13T01:45:33.170Z,97759.31
2023-10-13T01:47:59.947Z,97758.25
2023-10-13T01:50:30.548Z,97769.38
2023-10-13T01:53:13.339Z,97755.44
2023-10-13T01:55:44.735Z,97768.41
2023-10-13T01:58:21.135Z,97764.28
2023-10-13T02:00:49.091Z,97764.19
2023-10-13T02:03:17.817Z,97766.50
2023-10-13T02:05:49.383Z,97761.13
2023-10-13T02:08:24.021Z,97768.06
2023-10-13T02:10:54.821Z,97763.94
2023-10-13T02:13:24.381Z,97769.19
2023-10-13T02:15:57.756Z,97766.31
2023-10-13T02:18:28.555Z,97768.41
2023-10-13T02:20:56.308Z,97760.34
2023-10-13T02:23:26.376Z,97771.28
2023-10-13T02:26:01.625Z,97769.28
2023-10-13T02:28:30.694Z,97768.66
2023-10-13T02:30:58.688Z,97764.53
2023-10-13T02:33:34.317Z,97767.25
2023-10-13T02:36:06.559Z,97763.84
2023-10-13T02:38:34.210Z,97761.75
2023-10-13T02:41:07.088Z,97761.28
2023-10-13T02:43:37.349Z,97761.38
2023-10-13T02:46:05.376Z,97745.78
2023-10-13T02:48:41.379Z,97756.69
2023-10-13T02:51:16.579Z,97763.03
2023-10-13T02:53:48.022Z,97751.75
2023-10-13T02:56:15.008Z,97763.47
2023-10-13T02:58:46.810Z,97764.34
2023-10-13T03:01:19.347Z,97767.22
2023-10-13T03:03:55.467Z,97766.97
2023-10-13T03:06:33.763Z,97760.50
2023-10-13T03:09:14.894Z,97764.28
2023-10-13T03:11:50.912Z,97762.97
2023-10-13T03:14:32.547Z,97765.59
2023-10-13T03:17:10.373Z,97767.00
2023-10-13T03:19:38.318Z,97769.44
2023-10-13T03:22:17.494Z,97757.19
2023-10-13T03:24:48.609Z,97774.19
2023-10-13T03:27:23.053Z,97777.69
2023-10-13T03:29:56.064Z,97779.59
2023-10-13T03:32:27.736Z,97782.16
2023-10-13T03:34:56.046Z,97775.28
2023-10-13T03:37:42.164Z,97789.03
2023-10-13T03:40:22.201Z,97786.84
2023-10-13T03:43:01.811Z,97783.38
2023-10-13T03:45:28.555Z,97785.47
2023-10-13T03:47:55.338Z,97787.22
2023-10-13T03:50:32.925Z,97791.16
2023-10-13T03:52:59.708Z,97786.34
2023-10-13T03:55:30.423Z,97773.88
2023-10-13T03:58:00.937Z,97785.00
2023-10-13T04:00:30.369Z,97794.69
2023-10-13T04:03:10.617Z,97790.03
2023-10-13T04:05:37.987Z,97786.81
2023-10-13T04:08:26.969Z,97780.19
2023-10-13T04:10:55.027Z,97788.91
2023-10-13T04:13:41.041Z,97782.16
2023-10-13T04:16:23.329Z,97781.72
2023-10-13T04:18:56.881Z,97777.84
2023-10-13T04:21:42.084Z,97780.28
2023-10-13T04:24:19.363Z,97776.28
2023-10-13T04:27:04.460Z,97773.53
2023-10-13T04:29:49.582Z,97774.88
2023-10-13T04:32:30.318Z,97777.19
2023-10-13T04:35:11.354Z,97777.13
2023-10-13T04:37:59.727Z,97775.34
2023-10-13T04:40:27.255Z,97765.28
2023-10-13T04:43:05.368Z,97771.31
2023-10-13T04:45:32.524Z,97781.66
2023-10-13T04:48:20.240Z,97779.22
2023-10-13T04:51:09.897Z,97780.06
2023-10-13T04:53:56.514Z,97790.41
2023-10-13T04:56:46.189Z,97771.31
2023-10-13T04:59:31.151Z,97802.44
2023-10-13T05:02:16.263Z,97813.94
2023-10-13T05:05:01.484Z,97798.00
2023-10-13T05:07:46.748Z,97801.16
2023-10-13T05:10:32.014Z,97811.06
2023-10-13T05:13:17.502Z,97817.59
2023-10-13T05:16:09.888Z,97813.06
2023-10-13T05:18:57.712Z,97811.06
2023-10-13T05:21:43.052Z,97811.25
2023-10-13T05:24:28.212Z,97824.44
2023-10-13T05:27:13.953Z,97821.28
2023-10-13T05:30:03.839Z,97821.72
2023-10-13T05:32:49.299Z,97835.94
2023-10-13T05:35:35.199Z,97834.72
2023-10-13T05:38:20.682Z,97834.47
2023-10-13T05:41:13.402Z,97834.75
2023-10-13T05:43:59.794Z,97817.97
2023-10-13T05:46:26.579Z,97833.78
2023-10-13T05:48:59.506Z,97831.47
2023-10-13T05:51:36.554Z,97841.50
2023-10-13T05:54:16.655Z,97830.81
2023-10-13T05:57:03.438Z,97839.28
2023-10-13T05:59:50.186Z,97841.34
2023-10-13T06:02:36.998Z,97845.91
2023-10-13T06:05:23.214Z,97837.34
2023-10-13T06:08:08.657Z,97846.25
2023-10-13T06:10:54.258Z,97845.03
2023-10-13T06:13:39.240Z,97846.81
2023-10-13T06:16:26.358Z,97847.03
2023-10-13T06:19:11.878Z,97860.00
2023-10-13T06:21:57.305Z,97865.53
2023-10-13T06:24:42.813Z,97869.13
2023-10-13T06:27:28.212Z,97858.06
2023-10-13T06:29:55.298Z,97868.78
2023-10-13T06:32:27.206Z,97870.69
2023-10-13T06:35:08.453Z,97867.41
2023-10-13T06:37:35.645Z,97848.63
2023-10-13T06:40:23.639Z,97853.03
2023-10-13T06:42:50.527Z,97850.69
2023-10-13T06:45:19.631Z,97846.41
2023-10-13T06:47:46.312Z,97848.50
2023-10-13T06:50:17.090Z,97844.88
2023-10-13T06:52:44.607Z,97842.91
2023-10-13T06:55:18.149Z,97845.41
2023-10-13T06:57:45.624Z,97845.47
2023-10-13T07:00:21.241Z,97834.38
2023-10-13T07:02:48.146Z,97831.56
2023-10-13T07:05:15.488Z,97831.94
2023-10-13T07:07:42.105Z,97832.41
2023-10-13T07:10:10.690Z,97830.72
2023-10-13T07:12:38.341Z,97825.81
2023-10-13T07:15:20.408Z,97823.94
2023-10-13T07:17:57.157Z,97824.13
2023-10-13T07:20:35.597Z,97820.81
2023-10-13T07:23:05.157Z,97817.69
2023-10-13T07:25:34.133Z,97809.03
2023-10-13T07:28:01.752Z,97809.84
2023-10-13T07:30:28.872Z,97802.13
2023-10-13T07:33:00.806Z,97794.88
2023-10-13T07:35:32.044Z,97793.50
2023-10-13T07:38:01.252Z,97796.06
2023-10-13T07:40:28.771Z,97797.84
2023-10-13T07:43:02.095Z,97784.03
2023-10-13T07:45:37.299Z,97773.63
2023-10-13T07:48:21.524Z,97765.94
2023-10-13T07:51:17.513Z,97771.19
2023-10-13T07:53:45.304Z,97754.59
2023-10-13T07:56:15.154Z,97763.00
2023-10-13T07:58:54.249Z,97745.84
2023-10-13T08:01:21.340Z,97764.03
2023-10-13T08:03:48.731Z,97766.09
2023-10-13T08:06:20.625Z,97771.00
2023-10-13T08:08:54.423Z,97741.31
2023-10-13T08:11:24.226Z,97744.13
2023-10-13T08:14:04.200Z,97748.72
2023-10-13T08:16:47.942Z,97738.63
2023-10-13T08:19:16.485Z,97743.31
2023-10-13T08:21:53.454Z,97737.25
2023-10-13T08:24:30.016Z,97733.94
2023-10-13T08:27:15.609Z,97736.59
2023-10-13T08:29:55.915Z,97724.22
2023-10-13T08:32:30.267Z,97763.84
2023-10-13T08:34:58.691Z,97741.81
2023-10-13T08:37:26.896Z,97747.25
2023-10-13T08:40:24.253Z,97747.16
2023-10-13T08:43:05.006Z,97738.28
2023-10-13T08:45:32.860Z,97738.47
2023-10-13T08:48:13.556Z,97735.69
2023-10-13T08:50:54.051Z,97768.22
2023-10-13T08:53:29.722Z,97774.66
2023-10-13T08:56:10.091Z,97767.59
2023-10-13T08:58:55.526Z,97779.97
2023-10-13T09:02:01.141Z,97772.25
2023-10-13T09:04:39.540Z,97774.88
2023-10-13T09:07:07.148Z,97768.56
2023-10-13T09:09:48.433Z,97774.88
2023-10-13T09:12:18.556Z,97772.56
2023-10-13T09:14:58.127Z,97777.38
2023-10-13T09:17:35.115Z,97768.59
2023-10-13T09:20:27.087Z,97760.66
2023-10-13T09:23:05.411Z,97750.94
2023-10-13T09:25:37.309Z,97750.34
2023-10-13T09:28:23.084Z,97738.75
2023-10-13T09:30:54.631Z,97732.44
2023-10-13T09:33:30.655Z,97734.69
2023-10-13T09:36:00.743Z,97738.44
2023-10-13T09:38:32.489Z,97727.25
2023-10-13T09:41:02.996Z,97716.66
2023-10-13T09:43:32.450Z,97715.06
2023-10-13T09:46:08.763Z,97714.50
2023-10-13T09:48:41.881Z,97705.50
2023-10-13T09:51:15.147Z,97703.34
2023-10-13T09:54:21.923Z,97691.97
2023-10-13T09:56:55.302Z,97697.31
2023-10-13T09:59:54.002Z,97695.88
2023-10-13T10:02:27.762Z,97692.94
2023-10-13T10:05:13.976Z,97684.84
2023-10-13T10:07:41.117Z,97677.88
2023-10-13T10:10:12.440Z,97681.31
2023-10-13T10:12:58.586Z,97667.69
2023-10-13T10:15:36.676Z,97667.28
2023-10-13T10:18:04.888Z,97652.16
2023-10-13T10:20:46.501Z,97639.47
2023-10-13T10:23:25.729Z,97632.25
2023-10-13T10:25:53.070Z,97616.09
2023-10-13T10:28:21.143Z,97626.31
2023-10-13T10:30:48.262Z,97621.59
2023-10-13T10:33:16.828Z,97622.75
2023-10-13T10:35:44.963Z,97613.66
2023-10-13T10:38:25.381Z,97622.53
2023-10-13T10:40:58.451Z,97621.31
2023-10-13T10:43:33.828Z,97616.94
2023-10-13T10:46:00.918Z,97613.38
2023-10-13T10:48:33.074Z,97602.28
2023-10-13T10:51:07.234Z,97609.75
2023-10-13T10:53:44.355Z,97609.22
2023-10-13T10:56:21.744Z,97601.28
2023-10-13T10:58:49.391Z,97594.56
2023-10-13T11:01:22.059Z,97595.00
2023-10-13T11:04:00.889Z,97580.88
2023-10-13T11:06:28.349Z,97588.28
2023-10-13T11:09:20.015Z,97588.63
2023-10-13T11:11:47.961Z,97585.13
2023-10-13T11:14:26.998Z,97564.25
2023-10-13T11:16:55.524Z,97565.03
2023-10-13T11:19:36.111Z,97565.69
2023-10-13T11:22:33.165Z,97559.69
2023-10-13T11:25:01.671Z,97550.22
2023-10-13T11:27:50.365Z,97546.22
2023-10-13T11:30:21.557Z,97548.28
2023-10-13T11:33:09.728Z,97538.94
2023-10-13T11:35:50.648Z,97530.53
2023-10-13T11:38:26.839Z,97526.78
2023-10-13T11:41:06.336Z,97531.97
2023-10-13T11:43:43.983Z,97526.22
2023-10-13T11:46:11.763Z,97506.41
2023-10-13T11:48:39.209Z,97516.41
2023-10-13T11:51:18.292Z,97509.41
2023-10-13T11:53:54.492Z,97509.31
2023-10-13T11:56:25.417Z,97505.69
2023-10-13T11:58:52.629Z,97499.91
2023-10-13T12:01:19.716Z,97499.97
2023-10-13T12:04:07.537Z,97484.53
2023-10-13T12:06:38.644Z,97487.75
2023-10-13T12:09:19.292Z,97482.06
2023-10-13T12:11:47.251Z,97482.69
2023-10-13T12:14:28.826Z,97482.63
2023-10-13T12:16:56.938Z,97482.34
2023-10-13T12:19:25.379Z,97475.19
2023-10-13T12:22:06.767Z,97472.34
2023-10-13T12:24:36.073Z,97461.13
2023-10-13T12:27:24.870Z,97475.31
2023-10-13T12:29:53.173Z,97467.28
2023-10-13T12:32:26.556Z,97468.34
2023-10-13T12:35:17.668Z,97459.44
2023-10-13T12:37:44.635Z,97456.38
2023-10-13T12:40:34.784Z,97457.13
2023-10-13T12:43:20.684Z,97447.06
2023-10-13T12:46:07.419Z,97441.31
2023-10-13T12:48:53.013Z,97452.00
2023-10-13T12:51:23.227Z,97441.63
2023-10-13T12:53:51.813Z,97445.34
2023-10-13T12:56:27.114Z,97443.69
2023-10-13T12:58:55.304Z,97430.75
2023-10-13T13:01:23.873Z,97440.75
2023-10-13T13:03:52.172Z,97427.84
2023-10-13T13:06:30.821Z,97424.19
2023-10-13T13:08:59.851Z,97432.28
2023-10-13T13:11:31.032Z,97424.13
2023-10-13T13:13:57.911Z,97415.69
2023-10-13T13:16:31.926Z,97414.38
2023-10-13T13:18:58.808Z,97412.59
2023-10-13T13:21:25.531Z,97424.53
2023-10-13T13:23:56.191Z,97421.16
2023-10-13T13:26:23.677Z,97412.50
2023-10-13T13:28:53.433Z,97412.69
2023-10-13T13:31:26.487Z,97411.00
2023-10-13T13:33:53.928Z,97407.75
2023-10-13T13:36:20.685Z,97406.25
2023-10-13T13:38:47.826Z,97407.03
2023-10-13T13:41:17.770Z,97400.84
2023-10-13T13:43:51.234Z,97408.94
2023-10-13T13:46:19.436Z,97408.59
2023-10-13T13:48:49.365Z,97397.66
2023-10-13T13:51:16.622Z,97408.16
2023-10-13T13:53:46.320Z,97404.31
2023-10-13T13:56:20.174Z,97410.09
2023-10-13T13:58:47.923Z,97395.81
2023-10-13T14:01:19.922Z,97401.38
2023-10-13T14:03:48.583Z,97395.00
2023-10-13T14:06:22.307Z,97392.63
2023-10-13T14:08:58.122Z,97394.59
2023-10-13T14:11:42.002Z,97389.19
2023-10-13T14:14:25.687Z,97388.44
2023-10-13T14:16:53.380Z,97388.72
2023-10-13T14:19:29.946Z,97394.13
2023-10-13T14:21:57.831Z,97398.72
2023-10-13T14:24:29.891Z,97398.72
2023-10-13T14:27:08.667Z,97403.56
2023-10-13T14:29:41.459Z,97392.75
2023-10-13T14:32:13.305Z,97401.34
2023-10-13T14:34:44.768Z,97391.88
2023-10-13T14:37:14.830Z,97401.91
2023-10-13T14:39:42.213Z,97404.59
2023-10-13T14:42:08.961Z,97407.19
2023-10-13T14:44:36.443Z,97386.88
2023-10-13T14:47:03.494Z,97389.72
2023-10-13T14:49:30.174Z,97401.88
2023-10-13T14:51:56.795Z,97391.75
2023-10-13T14:54:33.992Z,97387.56
2023-10-13T14:57:04.730Z,97400.88
2023-10-13T14:59:34.738Z,97394.06
2023-10-13T15:02:02.974Z,97392.09
2023-10-13T15:04:34.082Z,97397.84
2023-10-13T15:07:04.950Z,97397.16
2023-10-13T15:09:31.616Z,97398.72
2023-10-13T15:11:58.606Z,97412.16
2023-10-13T15:14:25.861Z,97413.03
2023-10-13T15:16:53.926Z,97414.53
2023-10-13T15:19:20.724Z,97403.31
2023-10-13T15:21:51.892Z,97412.84
2023-10-13T15:24:26.007Z,97410.53
2023-10-13T15:27:03.059Z,97409.28
2023-10-13T15:29:37.339Z,97417.53
2023-10-13T15:32:26.251Z,97400.56
2023-10-13T15:34:53.576Z,97410.59
2023-10-13T15:37:21.445Z,97421.66
2023-10-13T15:39:48.209Z,97418.19
2023-10-13T15:42:15.463Z,97425.69
2023-10-13T15:44:44.458Z,97420.94
2023-10-13T15:49:43.556Z,97423.97
2023-10-13T15:52:11.053Z,97417.69
2023-10-13T15:54:37.760Z,97429.44
2023-10-13T15:57:07.544Z,97422.78
2023-10-13T15:59:35.565Z,97437.59
2023-10-13T16:02:04.922Z,97424.41
2023-10-13T16:04:31.824Z,97427.28
2023-10-13T16:06:58.693Z,97426.00
2023-10-13T16:09:25.948Z,97433.56
2023-10-13T16:11:54.221Z,97432.84
2023-10-13T16:14:22.335Z,97439.06
2023-10-13T16:16:51.076Z,97442.44
2023-10-13T16:19:22.836Z,97433.38
2023-10-13T16:21:51.730Z,97447.91
2023-10-13T16:24:21.649Z,97454.13
2023-10-13T16:26:57.151Z,97454.63
2023-10-13T16:29:24.329Z,97457.78
2023-10-13T16:31:51.154Z,97462.16
2023-10-13T16:34:19.625Z,97460.09
2023-10-13T16:36:55.820Z,97457.25
2023-10-13T16:39:24.315Z,97466.03
2023-10-13T16:41:53.324Z,97456.19
2023-10-13T16:44:26.947Z,97469.66
2023-10-13T16:47:02.040Z,97467.25
2023-10-13T16:49:29.281Z,97475.00
2023-10-13T16:51:56.162Z,97470.84
2023-10-13T16:54:23.111Z,97477.81
2023-10-13T16:56:52.051Z,97466.38
2023-10-13T16:59:18.942Z,97479.81
2023-10-13T17:01:47.200Z,97475.06
2023-10-13T17:04:17.346Z,97480.72
2023-10-13T17:06:44.187Z,97484.56
2023-10-13T17:09:12.979Z,97490.00
2023-10-13T17:11:42.180Z,97493.06
2023-10-13T17:14:09.108Z,97499.75
2023-10-13T17:16:35.982Z,97494.25
2023-10-13T17:19:02.917Z,97493.19
2023-10-13T17:21:29.887Z,97491.88
2023-10-13T17:23:57.584Z,97495.69
2023-10-13T17:26:27.940Z,97501.16
2023-10-13T17:29:04.238Z,97490.31
2023-10-13T17:31:33.247Z,97490.06
2023-10-13T17:34:00.649Z,97489.78
2023-10-13T17:36:31.140Z,97490.69
2023-10-13T17:38:58.490Z,97497.84
2023-10-13T17:41:25.744Z,97496.53
2023-10-13T17:43:52.658Z,97501.91
2023-10-13T17:46:22.155Z,97484.63
2023-10-13T17:48:49.320Z,97501.13
2023-10-13T17:51:16.104Z,97511.81
2023-10-13T17:53:42.783Z,97514.59
2023-10-13T17:56:14.158Z,97512.69
2023-10-13T17:58:44.568Z,97522.16
2023-10-13T18:01:20.490Z,97524.56
2023-10-13T18:03:52.247Z,97533.03
2023-10-13T18:06:24.002Z,97525.66
2023-10-13T18:08:52.689Z,97533.13
2023-10-13T18:11:20.002Z,97536.16
2023-10-13T18:13:47.490Z,97547.66
2023-10-13T18:16:15.960Z,97540.28
2023-10-13T18:18:46.079Z,97552.00
2023-10-13T18:21:13.694Z,97550.69
2023-10-13T18:23:41.518Z,97558.50
2023-10-13T18:26:08.426Z,97563.22
2023-10-13T18:28:35.156Z,97560.44
2023-10-13T18:31:12.326Z,97563.16
2023-10-13T18:33:41.444Z,97561.06
2023-10-13T18:36:25.749Z,97567.16
2023-10-13T18:38:53.146Z,97566.75
2023-10-13T18:41:26.932Z,97576.44
2023-10-13T18:43:53.797Z,97579.28
2023-10-13T18:46:26.728Z,97580.81
2023-10-13T18:48:58.722Z,97572.72
2023-10-13T18:51:26.972Z,97583.75
2023-10-13T18:53:58.011Z,97595.22
2023-10-13T18:56:25.183Z,97591.97
2023-10-13T18:58:56.512Z,97597.56
2023-10-13T19:01:29.452Z,97598.72
2023-10-13T19:04:00.704Z,97592.56
2023-10-13T19:06:31.867Z,97600.78
2023-10-13T19:08:59.167Z,97606.66
2023-10-13T19:11:25.986Z,97603.91
2023-10-13T19:13:53.698Z,97597.84
2023-10-13T19:16:27.196Z,97588.66
2023-10-13T19:18:55.105Z,97596.09
2023-10-13T19:21:22.446Z,97607.81
2023-10-13T19:23:51.508Z,97618.66
2023-10-13T19:26:25.730Z,97603.91
2023-10-13T19:28:56.578Z,97601.56
2023-10-13T19:31:28.232Z,97600.56
2023-10-13T19:34:11.343Z,97602.88
2023-10-13T19:36:38.076Z,97607.75
2023-10-13T19:39:09.290Z,97605.34
2023-10-13T19:41:37.095Z,97605.72
2023-10-13T19:44:05.175Z,97606.09
2023-10-13T19:46:34.471Z,97601.03
2023-10-13T19:49:04.833Z,97619.00
2023-10-13T19:51:32.538Z,97615.63
2023-10-13T19:54:03.684Z,97624.34
2023-10-13T19:56:32.430Z,97627.22
2023-10-13T19:59:02.230Z,97621.44
2023-10-13T20:01:34.537Z,97604.22
2023-10-13T20:06:29.998Z,97619.59
2023-10-13T20:09:23.843Z,97609.56
2023-10-13T20:11:53.938Z,97619.31
2023-10-13T20:14:23.682Z,97609.88
2023-10-13T20:16:50.903Z,97622.81
2023-10-13T20:19:17.854Z,97601.81
2023-10-13T20:21:48.389Z,97629.72
2023-10-13T20:24:15.226Z,97617.78
2023-10-13T20:26:44.571Z,97616.25
2023-10-13T20:29:18.479Z,97612.50
2023-10-13T20:31:49.761Z,97613.25
2023-10-13T20:34:24.654Z,97620.81
2023-10-13T20:36:55.889Z,97626.22
2023-10-13T20:39:26.145Z,97626.22
2023-10-13T20:41:53.555Z,97628.59
2023-10-13T20:44:26.814Z,97631.13
2023-10-13T20:46:54.433Z,97635.41
2023-10-13T20:49:23.111Z,97620.81
2023-10-13T20:51:50.679Z,97624.91
2023-10-13T20:54:18.147Z,97633.06
2023-10-13T20:56:47.344Z,97632.47
2023-10-13T20:59:15.856Z,97643.44
2023-10-13T21:01:45.755Z,97636.88
2023-10-13T21:04:13.132Z,97638.72
2023-10-13T21:06:45.798Z,97635.94
2023-10-13T21:09:21.599Z,97631.22
2023-10-13T21:11:48.973Z,97637.16
2023-10-13T21:14:16.167Z,97628.69
2023-10-13T21:16:43.288Z,97631.69
2023-10-13T21:19:11.017Z,97630.72
2023-10-13T21:21:38.882Z,97643.47
2023-10-13T21:24:11.035Z,97637.13
2023-10-13T21:26:38.104Z,97638.38
2023-10-13T21:29:10.585Z,97631.50
2023-10-13T21:31:40.774Z,97636.81
2023-10-13T21:34:07.825Z,97646.22
2023-10-13T21:36:38.294Z,97637.44
2023-10-13T21:39:05.576Z,97638.38
2023-10-13T21:41:38.416Z,97645.91
2023-10-13T21:44:07.171Z,97638.69
2023-10-13T21:46:36.250Z,97637.44
2023-10-13T21:49:06.091Z,97634.47
2023-10-13T21:51:36.065Z,97633.38
2023-10-13T21:54:02.897Z,97631.81
2023-10-13T21:56:29.919Z,97630.06
2023-10-13T21:58:57.881Z,97626.44
2023-10-13T22:01:31.752Z,97622.03
2023-10-13T22:04:12.565Z,97618.91
2023-10-13T22:06:42.134Z,97624.81
2023-10-13T22:09:11.184Z,97626.69
2023-10-13T22:11:39.014Z,97624.94
2023-10-13T22:14:07.303Z,97633.84
2023-10-13T22:16:35.128Z,97629.75
2023-10-13T22:19:02.352Z,97634.69
2023-10-13T22:21:30.033Z,97631.81
2023-10-13T22:24:01.667Z,97630.13
2023-10-13T22:26:31.301Z,97627.63
2023-10-13T22:28:59.308Z,97642.03
2023-10-13T22:31:26.869Z,97638.13
2023-10-13T22:33:55.260Z,97615.81
2023-10-13T22:36:25.509Z,97617.41
2023-10-13T22:38:57.294Z,97624.44
2023-10-13T22:41:25.144Z,97612.63
2023-10-13T22:43:51.844Z,97637.41
2023-10-13T22:46:21.871Z,97640.72
2023-10-13T22:48:49.791Z,97635.22
2023-10-13T22:51:17.415Z,97639.28
2023-10-13T22:53:46.495Z,97636.13
2023-10-13T22:56:19.138Z,97638.91
2023-10-13T22:58:46.919Z,97636.84
2023-10-13T23:01:20.289Z,97640.44
2023-10-13T23:03:57.583Z,97636.31
2023-10-13T23:06:31.565Z,97647.84
2023-10-13T23:09:09.913Z,97648.50
2023-10-13T23:11:39.801Z,97640.66
2023-10-13T23:14:07.118Z,97648.09
2023-10-13T23:16:34.522Z,97654.53
2023-10-13T23:19:02.019Z,97654.19
2023-10-13T23:21:29.557Z,97646.53
2023-10-13T23:23:56.999Z,97644.31
2023-10-13T23:26:30.169Z,97643.78
2023-10-13T23:28:56.801Z,97639.84
2023-10-13T23:31:25.173Z,97632.44
2023-10-13T23:33:54.986Z,97635.41
2023-10-13T23:36:22.546Z,97648.66
2023-10-13T23:39:00.989Z,97642.94
2023-10-13T23:41:32.231Z,97640.38
2023-10-13T23:44:14.385Z,97629.06
2023-10-13T23:46:45.142Z,97622.81
2023-10-13T23:49:16.823Z,97624.72
2023-10-13T23:51:50.467Z,97626.09
2023-10-13T23:54:20.595Z,97631.72
2023-10-13T23:56:50.532Z,97631.72
2023-10-13T23:59:28.098Z,97624.97
